Time;durP1;ratioP1;P1;durP2;ratioP2;P2;SDS_P1;SDS_P2;PMS_P1;PMS_P2;Temp;Humidity;BMP_temperature;BMP_pressure;BME280_temperature;BME280_humidity;BME280_pressure;Samples;Min_cycle;Max_cycle;Signal;HPM_P1;HPM_P2
2021/07/08 00:02:10;;;;;;;0.03;0.00;;;19.20;58.10;;;;;;5026711;28;20034;-84
2021/07/08 00:04:40;;;;;;;0.30;0.00;;;19.10;58.20;;;;;;5027284;28;20026;-84
2021/07/08 00:07:06;;;;;;;0.00;0.00;;;19.10;58.20;;;;;;5011068;28;20045;-84
2021/07/08 00:09:33;;;;;;;0.28;0.00;;;19.10;58.20;;;;;;5012081;28;20042;-83
2021/07/08 00:11:59;;;;;;;0.10;0.00;;;19.10;58.30;;;;;;5007776;28;20050;-84
2021/07/08 00:14:25;;;;;;;0.00;0.00;;;19.00;58.30;;;;;;5016580;28;20041;-78
2021/07/08 00:16:51;;;;;;;5.82;0.45;;;19.00;58.40;;;;;;5053028;28;20026;-77
2021/07/08 00:19:17;;;;;;;0.43;0.20;;;19.00;58.50;;;;;;5042466;28;20044;-83
2021/07/08 00:21:43;;;;;;;0.08;0.00;;;19.00;58.50;;;;;;5012510;28;20033;-84
2021/07/08 00:24:09;;;;;;;2.05;0.55;;;19.00;58.60;;;;;;5007220;28;20046;-84
2021/07/08 00:26:35;;;;;;;0.00;0.00;;;18.90;58.60;;;;;;5019883;28;20038;-84
2021/07/08 00:29:02;;;;;;;0.00;0.00;;;18.90;58.70;;;;;;5027107;28;20021;-83
2021/07/08 00:31:28;;;;;;;0.35;0.00;;;18.90;58.70;;;;;;5026369;28;20038;-84
2021/07/08 00:33:54;;;;;;;0.00;0.00;;;18.90;58.80;;;;;;5011051;28;20041;-84
2021/07/08 00:36:20;;;;;;;0.35;0.20;;;18.90;58.80;;;;;;5026893;28;20033;-83
2021/07/08 00:38:46;;;;;;;0.03;0.03;;;18.90;58.80;;;;;;5026668;28;20037;-84
2021/07/08 00:41:12;;;;;;;0.10;0.00;;;18.90;58.90;;;;;;5011685;28;20284;-84
2021/07/08 00:43:38;;;;;;;0.00;0.00;;;18.90;58.90;;;;;;5010603;28;20041;-84
2021/07/08 00:46:04;;;;;;;6.80;0.70;;;18.90;58.90;;;;;;5026800;28;20034;-85
2021/07/08 00:48:31;;;;;;;0.13;0.10;;;18.90;58.90;;;;;;5010322;28;20041;-83
2021/07/08 00:50:57;;;;;;;1.65;0.43;;;19.00;59.00;;;;;;5026885;28;20508;-83
2021/07/08 00:53:23;;;;;;;0.00;0.00;;;19.00;59.00;;;;;;5009876;28;20049;-82
2021/07/08 00:55:55;;;;;;;0.00;0.00;;;19.00;59.00;;;;;;5026773;28;20030;-84
2021/07/08 00:58:21;;;;;;;0.00;0.00;;;19.00;59.10;;;;;;5026856;28;20022;-84
2021/07/08 01:00:48;;;;;;;0.38;0.10;;;19.00;59.10;;;;;;5010523;28;20520;-83
2021/07/08 01:03:14;;;;;;;0.03;0.00;;;19.00;59.10;;;;;;5026658;28;20049;-83
2021/07/08 01:05:43;;;;;;;0.15;0.00;;;19.00;59.10;;;;;;5026709;28;20355;-84
2021/07/08 01:08:10;;;;;;;0.30;0.10;;;19.00;59.20;;;;;;5028202;28;20037;-84
2021/07/08 01:10:36;;;;;;;0.17;0.15;;;19.00;59.30;;;;;;5030216;28;20026;-84
2021/07/08 01:13:02;;;;;;;0.00;0.00;;;19.00;59.30;;;;;;5030700;28;20026;-81
2021/07/08 01:15:29;;;;;;;0.55;0.05;;;19.00;59.30;;;;;;5001769;28;20034;-84
2021/07/08 01:17:55;;;;;;;0.00;0.00;;;19.00;59.40;;;;;;5030218;28;20029;-83
2021/07/08 01:20:24;;;;;;;0.08;0.00;;;19.00;59.40;;;;;;5014791;28;20034;-84
2021/07/08 01:22:57;;;;;;;0.00;0.00;;;19.00;59.50;;;;;;5014711;28;20033;-84
2021/07/08 01:25:24;;;;;;;0.15;0.00;;;18.90;59.50;;;;;;5029090;28;20037;-82
2021/07/08 01:27:51;;;;;;;0.35;0.17;;;18.90;59.50;;;;;;4997889;28;20034;-83
2021/07/08 01:30:17;;;;;;;0.30;0.28;;;19.00;59.60;;;;;;5028975;28;20512;-84
2021/07/08 01:32:43;;;;;;;0.10;0.00;;;19.00;59.70;;;;;;5029735;28;20530;-83
2021/07/08 01:35:10;;;;;;;0.43;0.20;;;18.90;59.70;;;;;;5030025;28;20044;-84
2021/07/08 01:37:38;;;;;;;0.00;0.00;;;19.00;59.80;;;;;;5029521;28;20058;-83
2021/07/08 01:40:06;;;;;;;0.30;0.00;;;18.90;59.80;;;;;;5014771;28;20034;-83
2021/07/08 01:42:32;;;;;;;0.15;0.00;;;18.90;59.80;;;;;;5013510;28;20033;-82
2021/07/08 01:44:58;;;;;;;0.20;0.10;;;18.90;59.90;;;;;;5029685;28;20040;-84
2021/07/08 01:47:24;;;;;;;0.00;0.00;;;18.90;60.00;;;;;;5029115;28;20037;-84
2021/07/08 01:49:50;;;;;;;0.20;0.20;;;18.90;60.00;;;;;;5029539;28;20503;-83
2021/07/08 01:52:16;;;;;;;0.00;0.00;;;18.90;60.10;;;;;;5014087;28;20045;-83
2021/07/08 01:54:42;;;;;;;0.00;0.00;;;18.90;60.10;;;;;;5010188;28;20064;-83
2021/07/08 01:57:08;;;;;;;0.63;0.17;;;18.90;60.20;;;;;;5011458;28;20030;-84
2021/07/08 01:59:34;;;;;;;0.00;0.00;;;18.90;60.20;;;;;;5009817;28;20034;-84
2021/07/08 02:02:01;;;;;;;0.08;0.08;;;18.90;60.20;;;;;;5014807;28;20034;-82
2021/07/08 02:04:27;;;;;;;0.43;0.25;;;18.90;60.30;;;;;;5004736;28;20041;-83
2021/07/08 02:06:53;;;;;;;0.00;0.00;;;18.80;60.40;;;;;;5021527;28;20030;-83
2021/07/08 02:09:19;;;;;;;0.00;0.00;;;18.80;60.50;;;;;;5001253;28;20038;-81
2021/07/08 02:11:45;;;;;;;0.38;0.00;;;18.80;60.70;;;;;;5020476;28;20048;-84
2021/07/08 02:14:11;;;;;;;0.22;0.10;;;18.70;60.70;;;;;;5019858;28;20026;-84
2021/07/08 02:16:38;;;;;;;0.20;0.00;;;18.70;60.90;;;;;;4991149;28;20638;-83
2021/07/08 02:19:05;;;;;;;0.20;0.10;;;18.60;60.90;;;;;;4986775;28;20031;-83
2021/07/08 02:21:31;;;;;;;0.15;0.10;;;18.60;61.00;;;;;;4987647;28;20033;-84
2021/07/08 02:23:57;;;;;;;1.70;0.85;;;18.60;61.10;;;;;;4986389;28;20027;-84
2021/07/08 02:26:23;;;;;;;0.20;0.00;;;18.60;61.20;;;;;;4999829;28;20046;-82
2021/07/08 02:28:50;;;;;;;0.20;0.20;;;18.60;61.20;;;;;;4989752;28;20371;-83
2021/07/08 02:31:16;;;;;;;0.05;0.00;;;18.60;61.20;;;;;;4973868;28;20046;-84
2021/07/08 02:33:42;;;;;;;0.03;0.00;;;18.60;61.20;;;;;;4974759;28;20046;-84
2021/07/08 02:36:08;;;;;;;0.00;0.00;;;18.60;61.30;;;;;;4955835;28;20050;-84
2021/07/08 02:38:34;;;;;;;0.22;0.08;;;18.60;61.30;;;;;;5001736;28;20551;-83
2021/07/08 02:41:01;;;;;;;0.00;0.00;;;18.60;61.30;;;;;;5009025;28;20022;-83
2021/07/08 02:43:27;;;;;;;0.55;0.00;;;18.60;61.40;;;;;;5008929;28;20026;-84
2021/07/08 02:45:53;;;;;;;0.20;0.10;;;18.70;61.40;;;;;;4992634;28;20038;-83
2021/07/08 02:48:20;;;;;;;0.10;0.00;;;18.60;61.50;;;;;;4993363;28;20508;-84
2021/07/08 02:50:47;;;;;;;0.28;0.17;;;18.60;61.50;;;;;;4992357;28;20038;-85
2021/07/08 02:53:14;;;;;;;0.70;0.20;;;18.60;61.50;;;;;;5008775;28;20034;-83
2021/07/08 02:55:40;;;;;;;0.00;0.00;;;18.60;61.60;;;;;;5008675;28;20266;-84
2021/07/08 02:58:06;;;;;;;0.70;0.55;;;18.70;61.70;;;;;;5008828;28;20034;-84
2021/07/08 03:00:32;;;;;;;5.20;0.47;;;18.60;61.70;;;;;;4992097;28;20034;-82
2021/07/08 03:02:59;;;;;;;0.00;0.00;;;18.60;61.70;;;;;;5008107;28;20029;-80
2021/07/08 03:05:25;;;;;;;0.65;0.10;;;18.60;61.70;;;;;;5008650;28;20090;-84
2021/07/08 03:07:51;;;;;;;0.00;0.00;;;18.60;61.80;;;;;;4993365;28;20023;-84
2021/07/08 03:10:19;;;;;;;0.43;0.10;;;18.60;61.90;;;;;;5008385;28;20027;-81
2021/07/08 03:12:45;;;;;;;0.25;0.10;;;18.60;61.90;;;;;;4990677;28;20477;-83
2021/07/08 03:15:12;;;;;;;1.00;0.22;;;18.60;62.00;;;;;;5009093;28;20026;-81
2021/07/08 03:17:38;;;;;;;0.10;0.10;;;18.60;62.10;;;;;;5027599;28;20033;-84
2021/07/08 03:20:15;;;;;;;0.20;0.10;;;18.60;62.20;;;;;;5011505;28;20038;-85
2021/07/08 03:22:41;;;;;;;1.35;0.45;;;18.60;62.30;;;;;;4978619;28;20038;-85
2021/07/08 03:25:09;;;;;;;0.85;0.38;;;18.60;62.20;;;;;;5028295;28;20033;-83
2021/07/08 03:27:35;;;;;;;0.00;0.00;;;18.50;62.20;;;;;;5011752;28;20037;-84
2021/07/08 03:30:04;;;;;;;0.00;0.00;;;18.60;62.40;;;;;;5027388;28;20057;-82
2021/07/08 03:32:30;;;;;;;8.80;0.13;;;18.60;62.40;;;;;;5026029;28;20539;-84
2021/07/08 03:34:56;;;;;;;0.50;0.00;;;18.60;62.40;;;;;;5012444;28;20030;-84
2021/07/08 03:37:22;;;;;;;0.10;0.00;;;18.60;62.40;;;;;;5011243;28;20041;-84
2021/07/08 03:39:48;;;;;;;0.08;0.00;;;18.60;62.50;;;;;;5011668;28;20030;-84
2021/07/08 03:42:14;;;;;;;0.10;0.00;;;18.60;62.50;;;;;;5012149;28;20034;-83
2021/07/08 03:44:40;;;;;;;0.00;0.00;;;18.60;62.60;;;;;;5027489;28;20029;-84
2021/07/08 03:47:07;;;;;;;0.38;0.20;;;18.60;62.60;;;;;;5026751;28;20033;-83
2021/07/08 03:49:33;;;;;;;0.43;0.00;;;18.60;62.70;;;;;;5027664;28;20388;-83
2021/07/08 03:51:59;;;;;;;0.20;0.00;;;18.60;62.70;;;;;;5012720;28;20045;-84
2021/07/08 03:54:25;;;;;;;0.50;0.03;;;18.60;62.80;;;;;;5027257;28;20476;-84
2021/07/08 03:56:51;;;;;;;1.38;0.17;;;18.50;62.80;;;;;;5012203;28;20034;-82
2021/07/08 03:59:17;;;;;;;0.43;0.10;;;18.50;62.90;;;;;;5010834;28;20037;-84
2021/07/08 04:01:43;;;;;;;0.20;0.05;;;18.50;62.90;;;;;;5026612;28;20034;-84
2021/07/08 04:04:09;;;;;;;0.20;0.10;;;18.50;63.00;;;;;;5027528;28;20022;-84
2021/07/08 04:06:35;;;;;;;1.27;0.30;;;18.50;63.00;;;;;;5011358;28;20041;-83
2021/07/08 04:09:01;;;;;;;0.03;0.03;;;18.50;63.10;;;;;;5007480;28;20031;-84
2021/07/08 04:11:27;;;;;;;0.00;0.00;;;18.50;63.10;;;;;;5003632;28;20045;-83
2021/07/08 04:13:53;;;;;;;0.00;0.00;;;18.50;63.20;;;;;;5011949;28;20032;-82
2021/07/08 04:16:19;;;;;;;6.88;0.43;;;18.50;63.30;;;;;;5026448;28;20034;-84
2021/07/08 04:18:46;;;;;;;0.25;0.20;;;18.40;63.20;;;;;;5008340;28;20046;-83
2021/07/08 04:21:12;;;;;;;0.60;0.10;;;18.40;63.30;;;;;;5008605;28;20029;-84
2021/07/08 04:23:38;;;;;;;0.17;0.15;;;18.50;63.40;;;;;;5027239;28;20030;-84
2021/07/08 04:26:04;;;;;;;0.20;0.10;;;18.40;63.40;;;;;;5027180;28;20026;-82
2021/07/08 04:28:30;;;;;;;10.25;0.38;;;18.40;63.50;;;;;;5027220;28;20480;-83
2021/07/08 04:30:56;;;;;;;0.20;0.10;;;18.40;63.50;;;;;;5010171;28;20046;-85
2021/07/08 04:33:22;;;;;;;1.67;0.03;;;18.40;63.50;;;;;;5026885;28;20041;-84
2021/07/08 04:35:49;;;;;;;0.00;0.00;;;18.40;63.60;;;;;;5007173;28;20034;-83
2021/07/08 04:38:16;;;;;;;0.20;0.20;;;18.40;63.60;;;;;;5000809;28;20057;-84
2021/07/08 04:40:42;;;;;;;0.28;0.25;;;18.40;63.60;;;;;;5011850;28;20018;-84
2021/07/08 04:43:09;;;;;;;0.43;0.28;;;18.40;63.60;;;;;;5012622;28;20034;-84
2021/07/08 04:45:35;;;;;;;5.38;0.17;;;18.50;63.70;;;;;;5014188;28;20038;-83
2021/07/08 04:48:02;;;;;;;0.22;0.15;;;18.40;63.70;;;;;;5030845;28;20026;-84
2021/07/08 04:50:28;;;;;;;2.83;0.40;;;18.50;63.70;;;;;;5014400;28;20042;-84
2021/07/08 04:52:54;;;;;;;0.15;0.10;;;18.50;63.80;;;;;;5013339;28;20527;-83
2021/07/08 04:55:21;;;;;;;0.20;0.10;;;18.50;63.80;;;;;;5014395;28;20385;-82
2021/07/08 04:57:49;;;;;;;0.00;0.00;;;18.50;63.80;;;;;;5014865;28;20029;-84
2021/07/08 05:00:15;;;;;;;3.10;0.35;;;18.50;63.80;;;;;;5029632;28;20022;-83
2021/07/08 05:02:42;;;;;;;0.15;0.00;;;18.50;63.90;;;;;;5030347;28;20022;-84
2021/07/08 05:05:09;;;;;;;0.20;0.10;;;18.50;63.80;;;;;;5030368;28;20026;-84
2021/07/08 05:07:36;;;;;;;0.20;0.03;;;18.50;63.80;;;;;;5030526;28;20038;-84
2021/07/08 05:10:03;;;;;;;0.17;0.00;;;18.60;63.90;;;;;;5030903;28;20029;-83
2021/07/08 05:12:29;;;;;;;0.00;0.00;;;18.60;63.90;;;;;;5013007;28;20050;-84
2021/07/08 05:14:55;;;;;;;0.30;0.15;;;18.50;63.80;;;;;;5010175;28;20100;-84
2021/07/08 05:17:21;;;;;;;1.08;0.40;;;18.60;63.90;;;;;;5029703;28;20038;-83
2021/07/08 05:19:47;;;;;;;0.15;0.00;;;18.60;63.90;;;;;;5030252;28;20022;-84
2021/07/08 05:22:16;;;;;;;0.00;0.00;;;18.60;63.90;;;;;;5014973;28;20033;-84
2021/07/08 05:24:43;;;;;;;2.10;0.20;;;18.60;63.90;;;;;;5014032;28;20040;-83
2021/07/08 05:27:15;;;;;;;0.00;0.00;;;18.70;64.00;;;;;;5029953;28;20030;-84
2021/07/08 05:29:44;;;;;;;0.45;0.22;;;18.70;64.00;;;;;;5014306;28;20042;-84
2021/07/08 05:32:12;;;;;;;0.50;0.10;;;18.70;64.00;;;;;;5012003;28;20038;-84
2021/07/08 05:34:42;;;;;;;0.25;0.10;;;18.70;63.90;;;;;;5014570;28;20041;-84
2021/07/08 05:37:08;;;;;;;0.10;0.00;;;18.70;64.10;;;;;;5029609;28;20034;-83
2021/07/08 05:39:34;;;;;;;0.95;0.30;;;18.80;64.00;;;;;;4994234;28;20034;-84
2021/07/08 05:42:01;;;;;;;0.80;0.30;;;18.80;64.00;;;;;;5025986;28;20388;-84
2021/07/08 05:44:27;;;;;;;0.30;0.20;;;18.80;63.90;;;;;;5013038;28;20046;-84
2021/07/08 05:46:53;;;;;;;0.00;0.00;;;18.90;63.90;;;;;;5029228;28;20061;-84
2021/07/08 05:49:19;;;;;;;0.00;0.00;;;18.90;63.90;;;;;;5029640;28;20028;-84
2021/07/08 05:51:45;;;;;;;0.55;0.05;;;18.90;63.90;;;;;;5013738;28;20034;-83
2021/07/08 05:54:11;;;;;;;6.22;0.25;;;18.90;63.90;;;;;;5014085;28;20041;-83
2021/07/08 05:56:37;;;;;;;0.00;0.00;;;18.90;63.90;;;;;;5009243;28;20035;-84
2021/07/08 05:59:03;;;;;;;0.20;0.05;;;18.90;63.90;;;;;;5001844;28;20033;-84
2021/07/08 06:01:29;;;;;;;0.65;0.00;;;19.00;64.00;;;;;;5013807;28;20045;-86
2021/07/08 06:03:55;;;;;;;0.40;0.22;;;19.00;64.00;;;;;;5013462;28;20029;-83
2021/07/08 06:06:21;;;;;;;0.20;0.10;;;19.00;64.00;;;;;;5029479;28;20030;-84
2021/07/08 06:08:48;;;;;;;0.73;0.20;;;19.10;63.90;;;;;;5029346;28;20037;-84
2021/07/08 06:11:14;;;;;;;0.00;0.00;;;19.20;63.80;;;;;;5013496;28;20098;-84
2021/07/08 06:13:40;;;;;;;0.32;0.20;;;19.40;63.50;;;;;;5029185;28;20346;-83
2021/07/08 06:16:06;;;;;;;0.45;0.00;;;19.50;63.30;;;;;;5028912;28;20400;-83
2021/07/08 06:18:32;;;;;;;0.10;0.00;;;19.60;63.00;;;;;;5013032;28;20045;-85
2021/07/08 06:20:58;;;;;;;0.22;0.00;;;19.90;62.90;;;;;;5029121;28;20380;-85
2021/07/08 06:23:25;;;;;;;0.25;0.05;;;20.10;62.50;;;;;;5013870;28;20038;-84
2021/07/08 06:25:51;;;;;;;0.15;0.10;;;20.20;62.20;;;;;;5028703;28;20037;-83
2021/07/08 06:28:17;;;;;;;0.00;0.00;;;20.40;62.10;;;;;;5028998;28;20026;-85
2021/07/08 06:30:44;;;;;;;0.20;0.20;;;20.30;62.00;;;;;;5011421;28;20038;-84
2021/07/08 06:33:10;;;;;;;3.55;0.38;;;20.40;62.10;;;;;;5028508;28;20489;-84
2021/07/08 06:35:36;;;;;;;0.35;0.00;;;20.40;62.10;;;;;;5028754;28;20030;-85
2021/07/08 06:38:03;;;;;;;1.77;0.45;;;20.40;62.20;;;;;;5028859;28;20034;-85
2021/07/08 06:40:29;;;;;;;0.82;0.32;;;20.40;62.30;;;;;;5028307;28;20472;-85
2021/07/08 06:42:57;;;;;;;0.00;0.00;;;20.40;62.40;;;;;;5012682;28;20045;-84
2021/07/08 06:45:23;;;;;;;0.00;0.00;;;20.30;62.30;;;;;;5027941;28;20408;-84
2021/07/08 06:48:00;;;;;;;0.30;0.00;;;20.30;62.50;;;;;;5013245;28;20018;-84
2021/07/08 06:50:27;;;;;;;0.17;0.00;;;20.30;62.60;;;;;;5013113;28;20042;-84
2021/07/08 06:52:53;;;;;;;0.00;0.00;;;20.30;62.70;;;;;;5028395;28;20038;-85
2021/07/08 06:55:19;;;;;;;0.08;0.00;;;20.30;62.70;;;;;;5028034;28;20022;-83
2021/07/08 06:57:51;;;;;;;0.10;0.10;;;20.20;62.70;;;;;;5013510;28;20038;-83
2021/07/08 07:00:25;;;;;;;0.10;0.00;;;20.20;62.70;;;;;;5026999;28;20028;-84
2021/07/08 07:02:58;;;;;;;0.20;0.10;;;20.30;62.70;;;;;;5027281;28;20040;-84
2021/07/08 07:05:25;;;;;;;0.20;0.00;;;20.40;62.60;;;;;;5027519;28;20037;-83
2021/07/08 07:07:51;;;;;;;0.00;0.00;;;20.40;62.40;;;;;;5011619;28;20052;-84
2021/07/08 07:10:17;;;;;;;0.32;0.28;;;20.50;62.40;;;;;;5027915;28;20380;-84
2021/07/08 07:12:44;;;;;;;0.65;0.10;;;20.50;62.40;;;;;;4992596;28;20050;-84
2021/07/08 07:15:11;;;;;;;0.10;0.00;;;20.50;62.40;;;;;;5025041;28;20032;-82
2021/07/08 07:17:38;;;;;;;0.32;0.05;;;20.50;62.30;;;;;;5027912;28;20014;-84
2021/07/08 07:20:08;;;;;;;0.00;0.00;;;20.50;62.30;;;;;;5028080;28;20030;-84
2021/07/08 07:22:35;;;;;;;2.55;0.25;;;20.60;62.30;;;;;;5028891;28;20029;-82
2021/07/08 07:25:01;;;;;;;0.70;0.13;;;20.60;62.20;;;;;;5028327;28;20033;-85
2021/07/08 07:27:27;;;;;;;0.00;0.00;;;20.70;62.10;;;;;;5027838;28;20037;-84
2021/07/08 07:29:53;;;;;;;0.10;0.10;;;20.70;62.00;;;;;;5027567;28;20034;-85
2021/07/08 07:32:19;;;;;;;0.20;0.05;;;20.80;61.90;;;;;;5027041;28;20484;-84
2021/07/08 07:34:45;;;;;;;0.05;0.05;;;20.90;61.80;;;;;;5027649;28;20037;-84
2021/07/08 07:37:11;;;;;;;0.40;0.13;;;21.00;61.70;;;;;;5028015;28;20033;-85
2021/07/08 07:39:37;;;;;;;2.65;0.10;;;21.00;61.50;;;;;;5012493;28;20037;-84
2021/07/08 07:42:04;;;;;;;0.10;0.00;;;21.10;61.50;;;;;;5010979;28;20488;-84
2021/07/08 07:44:30;;;;;;;0.25;0.10;;;21.10;61.40;;;;;;5010844;28;20053;-85
2021/07/08 07:46:56;;;;;;;0.10;0.00;;;21.10;61.30;;;;;;5027123;28;20034;-84
2021/07/08 07:49:25;;;;;;;0.15;0.10;;;21.30;61.30;;;;;;5027431;28;20515;-84
2021/07/08 07:51:51;;;;;;;0.00;0.00;;;21.30;61.90;;;;;;5012643;28;20026;-84
2021/07/08 07:54:17;;;;;;;0.00;0.00;;;21.40;61.10;;;;;;5027039;28;20033;-84
2021/07/08 07:56:43;;;;;;;0.65;0.00;;;21.40;61.00;;;;;;5027482;28;20030;-84
2021/07/08 07:59:09;;;;;;;0.10;0.00;;;21.40;61.00;;;;;;5012059;28;20025;-84
2021/07/08 08:01:36;;;;;;;0.10;0.00;;;21.40;61.00;;;;;;5011676;28;20048;-85
2021/07/08 08:04:02;;;;;;;7.72;0.10;;;21.50;61.00;;;;;;5012738;28;20033;-84
2021/07/08 08:09:12;;;;;;;0.17;0.10;;;21.50;60.90;;;;;;5010183;28;20511;-84
2021/07/08 08:11:41;;;;;;;0.35;0.22;;;21.50;60.90;;;;;;5027346;28;20037;-85
2021/07/08 08:14:08;;;;;;;0.15;0.03;;;21.50;60.90;;;;;;5011963;28;20053;-84
2021/07/08 08:16:35;;;;;;;0.10;0.05;;;21.60;60.90;;;;;;5026728;28;20037;-83
2021/07/08 08:19:02;;;;;;;0.00;0.00;;;21.60;60.90;;;;;;5011231;28;20022;-84
2021/07/08 08:21:28;;;;;;;0.05;0.00;;;21.60;60.80;;;;;;5031357;28;20029;-85
2021/07/08 08:23:54;;;;;;;0.00;0.00;;;21.70;60.70;;;;;;5015630;28;20022;-85
2021/07/08 08:26:20;;;;;;;0.82;0.25;;;21.70;60.60;;;;;;5031138;28;20041;-85
2021/07/08 08:28:46;;;;;;;0.15;0.00;;;21.80;60.50;;;;;;5015885;28;20026;-83
2021/07/08 08:31:12;;;;;;;0.17;0.00;;;21.80;60.40;;;;;;5030693;28;20401;-85
2021/07/08 08:33:38;;;;;;;0.30;0.10;;;21.80;60.40;;;;;;5014945;28;20057;-85
2021/07/08 08:36:04;;;;;;;2.08;0.05;;;21.90;60.30;;;;;;5011370;28;20034;-84
2021/07/08 08:38:30;;;;;;;0.00;0.00;;;22.00;60.10;;;;;;5006327;28;20036;-85
2021/07/08 08:40:56;;;;;;;0.17;0.10;;;22.00;60.00;;;;;;5030943;28;20029;-85
2021/07/08 08:43:23;;;;;;;0.10;0.08;;;22.10;59.90;;;;;;5015695;28;20485;-84
2021/07/08 08:45:50;;;;;;;0.43;0.17;;;22.00;60.00;;;;;;4994996;28;20034;-85
2021/07/08 08:48:16;;;;;;;0.10;0.00;;;22.00;60.00;;;;;;5012521;28;20049;-83
2021/07/08 08:50:44;;;;;;;0.60;0.28;;;22.00;60.00;;;;;;5015220;28;20030;-85
2021/07/08 08:53:11;;;;;;;0.22;0.00;;;22.00;60.10;;;;;;5030422;28;20109;-85
2021/07/08 08:55:38;;;;;;;0.05;0.00;;;22.00;60.00;;;;;;5014372;28;20045;-84
2021/07/08 08:58:05;;;;;;;0.20;0.10;;;22.00;60.10;;;;;;5030768;28;20034;-83
2021/07/08 09:00:37;;;;;;;1.35;0.00;;;21.90;60.00;;;;;;5013824;28;20056;-85
2021/07/08 09:03:05;;;;;;;0.08;0.08;;;22.00;60.10;;;;;;5015301;28;20018;-85
2021/07/08 09:05:31;;;;;;;0.20;0.00;;;22.00;60.00;;;;;;5030075;28;20033;-85
2021/07/08 09:08:21;;;;;;;0.85;0.10;;;22.00;59.90;;;;;;5030680;28;20045;-85
2021/07/08 09:11:06;;;;;;;0.45;0.10;;;22.10;59.80;;;;;;5016125;28;20041;-85
2021/07/08 09:13:42;;;;;;;0.20;0.10;;;22.10;59.70;;;;;;5012434;28;20037;-85
2021/07/08 09:16:10;;;;;;;0.17;0.05;;;22.10;59.60;;;;;;5011645;28;20038;-85
2021/07/08 09:18:37;;;;;;;0.17;0.00;;;22.20;59.60;;;;;;5014451;28;20034;-86
2021/07/08 09:21:16;;;;;;;0.03;0.00;;;22.20;59.50;;;;;;5010041;28;20034;-85
2021/07/08 09:24:16;;;;;;;0.45;0.10;;;22.20;59.50;;;;;;5023920;28;20030;-85
2021/07/08 09:26:52;;;;;;;0.00;0.00;;;22.10;59.60;;;;;;5014816;28;20030;-85
2021/07/08 09:29:19;;;;;;;0.35;0.10;;;22.00;59.60;;;;;;5014099;28;20038;-84
2021/07/08 09:31:53;;;;;;;0.28;0.17;;;22.00;59.70;;;;;;5029381;28;20034;-84
2021/07/08 09:34:30;;;;;;;0.03;0.00;;;22.00;59.70;;;;;;5013331;28;20396;-84
2021/07/08 09:37:05;;;;;;;0.10;0.10;;;22.00;59.70;;;;;;5014236;28;20515;-85
2021/07/08 09:39:33;;;;;;;0.03;0.00;;;22.00;59.60;;;;;;5029543;28;20036;-83
2021/07/08 09:41:59;;;;;;;0.00;0.00;;;22.00;59.60;;;;;;5029696;28;20397;-85
2021/07/08 09:44:26;;;;;;;0.20;0.15;;;22.10;59.50;;;;;;5029674;28;20036;-85
2021/07/08 09:46:53;;;;;;;0.00;0.00;;;22.10;59.40;;;;;;5014067;28;20030;-85
2021/07/08 09:49:19;;;;;;;1.75;0.00;;;22.20;59.40;;;;;;5013985;28;20357;-85
2021/07/08 09:51:45;;;;;;;0.50;0.10;;;22.20;59.30;;;;;;5014793;28;20030;-83
2021/07/08 09:56:46;;;;;;;0.52;0.20;;;22.40;59.10;;;;;;5030157;28;20033;-85
2021/07/08 09:59:22;;;;;;;0.00;0.00;;;22.40;59.00;;;;;;5014213;28;20034;-85
2021/07/08 10:01:59;;;;;;;0.00;0.00;;;22.50;58.90;;;;;;5012337;28;20774;-85
2021/07/08 10:04:25;;;;;;;0.00;0.00;;;22.60;58.70;;;;;;5012179;28;20049;-83
2021/07/08 10:06:53;;;;;;;0.38;0.00;;;22.70;58.60;;;;;;5013678;28;20481;-84
2021/07/08 10:09:20;;;;;;;0.10;0.00;;;22.70;58.50;;;;;;5028998;28;20037;-85
2021/07/08 10:11:50;;;;;;;1.25;0.30;;;22.70;58.60;;;;;;5029132;28;20034;-85
2021/07/08 10:14:17;;;;;;;0.80;0.45;;;22.70;58.60;;;;;;5012435;28;20049;-84
2021/07/08 10:16:45;;;;;;;0.43;0.10;;;22.70;58.60;;;;;;5028784;28;20393;-86
2021/07/08 10:19:11;;;;;;;0.40;0.10;;;22.70;58.60;;;;;;5028610;28;20052;-84
2021/07/08 10:21:37;;;;;;;0.10;0.00;;;22.70;58.50;;;;;;5013039;28;20018;-85
2021/07/08 10:24:04;;;;;;;0.20;0.10;;;22.80;58.50;;;;;;5029029;28;20033;-85
2021/07/08 10:26:30;;;;;;;0.63;0.20;;;22.80;58.50;;;;;;5028793;28;20400;-85
2021/07/08 10:28:56;;;;;;;0.15;0.10;;;22.80;58.40;;;;;;5029094;28;20029;-84
2021/07/08 10:31:23;;;;;;;0.30;0.00;;;22.80;58.40;;;;;;5028157;28;20049;-85
2021/07/08 10:34:12;;;;;;;0.35;0.00;;;22.90;58.40;;;;;;4992438;28;20394;-84
2021/07/08 10:36:40;;;;;;;3.95;0.43;;;22.90;58.30;;;;;;5012651;28;20029;-85
2021/07/08 10:39:11;;;;;;;0.00;0.00;;;22.90;58.20;;;;;;5028485;28;20022;-85
2021/07/08 10:41:51;;;;;;;0.20;0.10;;;23.00;58.20;;;;;;5027874;28;20029;-85
2021/07/08 10:44:43;;;;;;;0.00;0.00;;;23.00;58.10;;;;;;5028741;28;20052;-84
2021/07/08 10:47:32;;;;;;;0.00;0.00;;;23.20;58.00;;;;;;5027725;28;20030;-85
2021/07/08 10:49:58;;;;;;;0.00;0.00;;;23.40;57.70;;;;;;5012110;28;20365;-84
2021/07/08 10:52:47;;;;;;;0.30;0.15;;;23.60;57.40;;;;;;5028425;28;20398;-85
2021/07/08 10:55:32;;;;;;;0.10;0.00;;;23.70;57.20;;;;;;5026131;28;20030;-84
2021/07/08 10:57:58;;;;;;;0.00;0.00;;;23.80;57.00;;;;;;5013761;28;20057;-85
2021/07/08 11:00:47;;;;;;;0.00;0.00;;;23.90;56.90;;;;;;5008025;28;20034;-84
2021/07/08 11:03:32;;;;;;;0.15;0.00;;;24.00;57.30;;;;;;5008886;28;20045;-85
2021/07/08 11:05:58;;;;;;;0.22;0.00;;;24.20;56.50;;;;;;5008384;28;20035;-85
2021/07/08 11:08:49;;;;;;;2.13;0.00;;;24.30;56.30;;;;;;5004278;28;20032;-85
2021/07/08 11:11:22;;;;;;;0.98;0.00;;;24.30;56.20;;;;;;5012921;28;20037;-84
2021/07/08 11:13:52;;;;;;;1.95;0.00;;;24.30;56.20;;;;;;5011573;28;20042;-86
2021/07/08 11:16:43;;;;;;;0.00;0.00;;;24.30;56.30;;;;;;5026811;28;20038;-83
2021/07/08 11:19:11;;;;;;;0.28;0.00;;;24.20;56.30;;;;;;5013132;28;20034;-85
2021/07/08 11:21:50;;;;;;;0.00;0.00;;;24.20;56.30;;;;;;5012057;28;20357;-85
2021/07/08 11:24:17;;;;;;;1.45;0.00;;;24.20;56.30;;;;;;5027926;28;20022;-84
2021/07/08 11:27:03;;;;;;;0.30;0.10;;;24.10;56.40;;;;;;5027818;28;20034;-85
2021/07/08 11:29:35;;;;;;;0.45;0.17;;;24.10;56.40;;;;;;5027452;28;20034;-85
2021/07/08 11:32:17;;;;;;;0.10;0.00;;;24.10;56.30;;;;;;5026967;28;20040;-85
2021/07/08 11:37:43;;;;;;;2.65;0.20;;;24.20;56.20;;;;;;5030364;28;20480;-84
2021/07/08 11:40:15;;;;;;;0.10;0.00;;;24.20;56.00;;;;;;5027746;28;20030;-85
2021/07/08 11:42:43;;;;;;;0.65;0.20;;;24.30;55.90;;;;;;5011292;28;20036;-85
2021/07/08 11:45:17;;;;;;;0.57;0.10;;;24.30;55.80;;;;;;5006882;28;20045;-85
2021/07/08 11:47:45;;;;;;;0.43;0.08;;;24.40;55.80;;;;;;5004229;28;20033;-85
2021/07/08 11:50:18;;;;;;;0.25;0.08;;;24.50;55.60;;;;;;5027374;28;20032;-85
2021/07/08 11:52:45;;;;;;;0.03;0.00;;;24.50;55.60;;;;;;5011986;28;20390;-85
2021/07/08 11:55:11;;;;;;;1.40;0.38;;;24.50;55.60;;;;;;5027434;28;20469;-84
2021/07/08 11:57:59;;;;;;;0.05;0.00;;;24.40;55.60;;;;;;5011677;28;20380;-85
2021/07/08 12:00:38;;;;;;;3.63;0.30;;;24.30;55.80;;;;;;5025362;28;20497;-86
2021/07/08 12:03:32;;;;;;;0.20;0.10;;;24.20;55.80;;;;;;5006103;28;20042;-85
2021/07/08 12:06:03;;;;;;;1.55;0.20;;;24.10;55.90;;;;;;5007838;28;20025;-85
2021/07/08 12:08:41;;;;;;;0.17;0.17;;;24.00;56.10;;;;;;5027125;28;20041;-85
2021/07/08 12:11:16;;;;;;;1.20;0.15;;;23.80;56.20;;;;;;5025776;28;20026;-85
2021/07/08 12:13:52;;;;;;;2.67;0.10;;;23.70;56.40;;;;;;5011796;28;20038;-84
2021/07/08 12:16:25;;;;;;;0.15;0.00;;;23.50;56.60;;;;;;5010708;28;20057;-85
2021/07/08 12:18:51;;;;;;;0.40;0.20;;;23.40;56.80;;;;;;5010582;28;20030;-85
2021/07/08 12:21:30;;;;;;;0.70;0.20;;;23.30;56.90;;;;;;5026926;28;20049;-85
2021/07/08 12:24:08;;;;;;;0.43;0.08;;;23.20;57.80;;;;;;5011941;28;20026;-85
2021/07/08 12:26:39;;;;;;;1.13;0.08;;;23.00;57.10;;;;;;5012004;28;20029;-84
2021/07/08 12:29:17;;;;;;;0.82;0.28;;;23.00;57.80;;;;;;5026999;28;20481;-80
2021/07/08 12:32:08;;;;;;;0.05;0.03;;;23.00;57.30;;;;;;4997450;28;20038;-85
2021/07/08 12:34:51;;;;;;;0.28;0.10;;;23.00;57.20;;;;;;5011541;28;20593;-82
2021/07/08 12:37:23;;;;;;;0.00;0.00;;;23.10;57.10;;;;;;5027274;28;20037;-85
2021/07/08 12:40:19;;;;;;;0.20;0.08;;;23.20;56.80;;;;;;5010092;28;20493;-85
2021/07/08 12:42:49;;;;;;;0.05;0.00;;;23.50;56.50;;;;;;4994645;28;20041;-85
2021/07/08 12:45:19;;;;;;;0.15;0.05;;;23.70;56.10;;;;;;5026601;28;20485;-84
2021/07/08 12:47:52;;;;;;;0.63;0.08;;;23.90;55.70;;;;;;5011611;28;20033;-84
2021/07/08 12:50:26;;;;;;;0.10;0.00;;;24.10;55.40;;;;;;5026526;28;20030;-84
2021/07/08 12:52:53;;;;;;;0.43;0.17;;;24.20;55.10;;;;;;5026977;28;20392;-84
2021/07/08 12:55:48;;;;;;;0.28;0.00;;;24.40;54.90;;;;;;5027186;28;20033;-85
2021/07/08 12:58:21;;;;;;;1.40;0.17;;;24.50;54.70;;;;;;5024456;28;20034;-83
2021/07/08 13:00:47;;;;;;;0.40;0.20;;;24.60;54.60;;;;;;5022230;28;20041;-85
2021/07/08 13:03:20;;;;;;;0.47;0.08;;;24.70;54.50;;;;;;5010371;28;20037;-85
2021/07/08 13:05:46;;;;;;;0.30;0.13;;;24.80;54.30;;;;;;5015293;28;20049;-85